sensor_id;sensor_type;location;lat;lon;timestamp;temperature;humidity
56240;DHT22;42154;51.992;5.896;2023-05-29T00:02:08;12.10;99.90
56240;DHT22;42154;51.992;5.896;2023-05-29T00:04:34;12.10;99.90
56240;DHT22;42154;51.992;5.896;2023-05-29T00:07:01;12.00;99.90
56240;DHT22;42154;51.992;5.896;2023-05-29T00:09:27;12.00;99.90
56240;DHT22;42154;51.992;5.896;2023-05-29T00:11:53;11.90;99.90
56240;DHT22;42154;51.992;5.896;2023-05-29T00:14:19;11.90;99.90
56240;DHT22;42154;51.992;5.896;2023-05-29T00:16:49;11.90;99.90
56240;DHT22;42154;51.992;5.896;2023-05-29T00:19:16;11.90;99.90
56240;DHT22;42154;51.992;5.896;2023-05-29T00:21:47;11.80;99.90
56240;DHT22;42154;51.992;5.896;2023-05-29T00:24:17;11.70;99.90
56240;DHT22;42154;51.992;5.896;2023-05-29T00:26:43;11.70;99.90
56240;DHT22;42154;51.992;5.896;2023-05-29T00:29:09;11.70;99.90
56240;DHT22;42154;51.992;5.896;2023-05-29T00:31:35;11.60;99.90
56240;DHT22;42154;51.992;5.896;2023-05-29T00:34:02;11.60;99.90
56240;DHT22;42154;51.992;5.896;2023-05-29T00:36:28;11.60;99.90
56240;DHT22;42154;51.992;5.896;2023-05-29T00:38:55;11.50;99.90
56240;DHT22;42154;51.992;5.896;2023-05-29T00:41:20;11.50;99.90
56240;DHT22;42154;51.992;5.896;2023-05-29T00:43:46;11.50;99.90
56240;DHT22;42154;51.992;5.896;2023-05-29T00:46:14;11.50;99.90
56240;DHT22;42154;51.992;5.896;2023-05-29T00:48:44;11.50;99.90
56240;DHT22;42154;51.992;5.896;2023-05-29T00:51:10;11.50;99.90
56240;DHT22;42154;51.992;5.896;2023-05-29T00:53:38;11.40;99.90
56240;DHT22;42154;51.992;5.896;2023-05-29T00:56:04;11.40;99.90
56240;DHT22;42154;51.992;5.896;2023-05-29T00:58:30;11.40;99.90
56240;DHT22;42154;51.992;5.896;2023-05-29T01:00:56;11.40;99.90
56240;DHT22;42154;51.992;5.896;2023-05-29T01:03:23;11.40;99.90
56240;DHT22;42154;51.992;5.896;2023-05-29T01:05:49;11.30;99.90
56240;DHT22;42154;51.992;5.896;2023-05-29T01:08:17;11.30;99.90
56240;DHT22;42154;51.992;5.896;2023-05-29T01:10:43;11.30;99.90
56240;DHT22;42154;51.992;5.896;2023-05-29T01:13:24;11.20;99.90
56240;DHT22;42154;51.992;5.896;2023-05-29T01:16:03;11.20;99.90
56240;DHT22;42154;51.992;5.896;2023-05-29T01:21:34;11.20;99.90
56240;DHT22;42154;51.992;5.896;2023-05-29T01:24:13;11.10;99.90
56240;DHT22;42154;51.992;5.896;2023-05-29T01:29:30;11.10;99.90
56240;DHT22;42154;51.992;5.896;2023-05-29T01:31:58;11.00;99.90
56240;DHT22;42154;51.992;5.896;2023-05-29T01:34:24;11.00;99.90
56240;DHT22;42154;51.992;5.896;2023-05-29T01:36:50;11.00;99.90
56240;DHT22;42154;51.992;5.896;2023-05-29T01:39:16;11.00;99.90
56240;DHT22;42154;51.992;5.896;2023-05-29T01:41:45;11.00;99.90
56240;DHT22;42154;51.992;5.896;2023-05-29T01:44:12;10.90;99.90
56240;DHT22;42154;51.992;5.896;2023-05-29T01:46:40;10.90;99.90
56240;DHT22;42154;51.992;5.896;2023-05-29T01:49:07;10.90;99.90
56240;DHT22;42154;51.992;5.896;2023-05-29T01:51:34;10.80;99.90
56240;DHT22;42154;51.992;5.896;2023-05-29T01:54:01;10.80;99.90
56240;DHT22;42154;51.992;5.896;2023-05-29T01:56:28;10.80;99.90
56240;DHT22;42154;51.992;5.896;2023-05-29T01:58:55;10.70;99.90
56240;DHT22;42154;51.992;5.896;2023-05-29T02:01:22;10.70;99.90
56240;DHT22;42154;51.992;5.896;2023-05-29T02:03:48;10.70;99.90
56240;DHT22;42154;51.992;5.896;2023-05-29T02:06:14;10.70;99.90
56240;DHT22;42154;51.992;5.896;2023-05-29T02:08:40;10.70;99.90
56240;DHT22;42154;51.992;5.896;2023-05-29T02:11:06;10.70;99.90
56240;DHT22;42154;51.992;5.896;2023-05-29T02:13:32;10.60;99.90
56240;DHT22;42154;51.992;5.896;2023-05-29T02:15:58;10.60;99.90
56240;DHT22;42154;51.992;5.896;2023-05-29T02:18:24;10.50;99.90
56240;DHT22;42154;51.992;5.896;2023-05-29T02:20:49;10.50;99.90
56240;DHT22;42154;51.992;5.896;2023-05-29T02:23:21;10.40;99.90
56240;DHT22;42154;51.992;5.896;2023-05-29T02:25:47;10.40;99.90
56240;DHT22;42154;51.992;5.896;2023-05-29T02:28:13;10.40;99.90
56240;DHT22;42154;51.992;5.896;2023-05-29T02:30:39;10.40;99.90
56240;DHT22;42154;51.992;5.896;2023-05-29T02:33:05;10.40;99.90
56240;DHT22;42154;51.992;5.896;2023-05-29T02:35:33;10.30;99.90
56240;DHT22;42154;51.992;5.896;2023-05-29T02:37:59;10.20;99.90
56240;DHT22;42154;51.992;5.896;2023-05-29T02:40:25;10.20;99.90
56240;DHT22;42154;51.992;5.896;2023-05-29T02:42:51;10.20;99.90
56240;DHT22;42154;51.992;5.896;2023-05-29T02:45:17;10.20;99.90
56240;DHT22;42154;51.992;5.896;2023-05-29T02:47:43;10.20;99.90
56240;DHT22;42154;51.992;5.896;2023-05-29T02:50:09;10.20;99.90
56240;DHT22;42154;51.992;5.896;2023-05-29T02:52:35;10.10;99.90
56240;DHT22;42154;51.992;5.896;2023-05-29T02:55:05;10.10;99.90
56240;DHT22;42154;51.992;5.896;2023-05-29T02:57:31;10.10;99.90
56240;DHT22;42154;51.992;5.896;2023-05-29T02:59:58;10.00;99.90
56240;DHT22;42154;51.992;5.896;2023-05-29T03:02:23;10.00;99.90
56240;DHT22;42154;51.992;5.896;2023-05-29T03:04:50;9.90;99.90
56240;DHT22;42154;51.992;5.896;2023-05-29T03:07:18;9.90;99.90
56240;DHT22;42154;51.992;5.896;2023-05-29T03:09:44;9.90;99.90
56240;DHT22;42154;51.992;5.896;2023-05-29T03:12:10;9.90;99.90
56240;DHT22;42154;51.992;5.896;2023-05-29T03:14:36;9.80;99.90
56240;DHT22;42154;51.992;5.896;2023-05-29T03:17:06;9.80;99.90
56240;DHT22;42154;51.992;5.896;2023-05-29T03:19:33;9.80;99.90
56240;DHT22;42154;51.992;5.896;2023-05-29T03:21:59;9.70;99.90
56240;DHT22;42154;51.992;5.896;2023-05-29T03:24:25;9.70;99.90
56240;DHT22;42154;51.992;5.896;2023-05-29T03:26:51;9.70;99.90
56240;DHT22;42154;51.992;5.896;2023-05-29T03:29:18;9.70;99.90
56240;DHT22;42154;51.992;5.896;2023-05-29T03:31:44;9.70;99.90
56240;DHT22;42154;51.992;5.896;2023-05-29T03:34:12;9.60;99.90
56240;DHT22;42154;51.992;5.896;2023-05-29T03:36:41;9.60;99.90
56240;DHT22;42154;51.992;5.896;2023-05-29T03:39:07;9.60;99.90
56240;DHT22;42154;51.992;5.896;2023-05-29T03:41:33;9.60;99.90
56240;DHT22;42154;51.992;5.896;2023-05-29T03:43:59;9.70;99.90
56240;DHT22;42154;51.992;5.896;2023-05-29T03:46:27;9.60;99.90
56240;DHT22;42154;51.992;5.896;2023-05-29T03:48:53;9.70;99.90
56240;DHT22;42154;51.992;5.896;2023-05-29T03:51:20;9.70;99.90
56240;DHT22;42154;51.992;5.896;2023-05-29T03:53:47;9.70;99.90
56240;DHT22;42154;51.992;5.896;2023-05-29T03:56:13;9.70;99.90
56240;DHT22;42154;51.992;5.896;2023-05-29T03:58:40;9.80;99.90
56240;DHT22;42154;51.992;5.896;2023-05-29T04:01:07;10.00;99.90
56240;DHT22;42154;51.992;5.896;2023-05-29T04:03:34;10.10;99.90
56240;DHT22;42154;51.992;5.896;2023-05-29T04:06:00;10.40;99.90
56240;DHT22;42154;51.992;5.896;2023-05-29T04:08:26;10.70;99.90
56240;DHT22;42154;51.992;5.896;2023-05-29T04:10:52;11.10;99.90
56240;DHT22;42154;51.992;5.896;2023-05-29T04:13:21;11.20;99.90
56240;DHT22;42154;51.992;5.896;2023-05-29T04:15:46;11.30;99.90
56240;DHT22;42154;51.992;5.896;2023-05-29T04:18:13;11.40;99.90
56240;DHT22;42154;51.992;5.896;2023-05-29T04:20:39;11.50;99.90
56240;DHT22;42154;51.992;5.896;2023-05-29T04:23:05;11.80;99.90
56240;DHT22;42154;51.992;5.896;2023-05-29T04:25:31;11.90;99.90
56240;DHT22;42154;51.992;5.896;2023-05-29T04:27:58;11.90;99.90
56240;DHT22;42154;51.992;5.896;2023-05-29T04:30:28;11.70;99.90
56240;DHT22;42154;51.992;5.896;2023-05-29T04:32:54;11.60;99.90
56240;DHT22;42154;51.992;5.896;2023-05-29T04:35:22;11.80;99.90
56240;DHT22;42154;51.992;5.896;2023-05-29T04:38:01;12.10;99.90
56240;DHT22;42154;51.992;5.896;2023-05-29T04:40:30;12.60;99.90
56240;DHT22;42154;51.992;5.896;2023-05-29T04:42:57;12.80;99.90
56240;DHT22;42154;51.992;5.896;2023-05-29T04:45:29;13.20;99.90
56240;DHT22;42154;51.992;5.896;2023-05-29T04:47:55;13.50;99.90
56240;DHT22;42154;51.992;5.896;2023-05-29T04:50:22;13.40;99.90
56240;DHT22;42154;51.992;5.896;2023-05-29T04:52:49;13.50;99.90
56240;DHT22;42154;51.992;5.896;2023-05-29T04:55:15;13.50;99.90
56240;DHT22;42154;51.992;5.896;2023-05-29T04:57:42;13.30;99.90
56240;DHT22;42154;51.992;5.896;2023-05-29T05:00:11;12.90;99.90
56240;DHT22;42154;51.992;5.896;2023-05-29T05:02:43;12.40;99.90
56240;DHT22;42154;51.992;5.896;2023-05-29T05:05:10;12.20;99.90
56240;DHT22;42154;51.992;5.896;2023-05-29T05:07:36;12.00;99.90
56240;DHT22;42154;51.992;5.896;2023-05-29T05:10:03;11.90;99.90
56240;DHT22;42154;51.992;5.896;2023-05-29T05:12:32;11.80;99.90
56240;DHT22;42154;51.992;5.896;2023-05-29T05:14:59;11.80;99.90
56240;DHT22;42154;51.992;5.896;2023-05-29T05:17:25;11.80;99.90
56240;DHT22;42154;51.992;5.896;2023-05-29T05:19:53;11.70;99.90
56240;DHT22;42154;51.992;5.896;2023-05-29T05:22:19;11.70;99.90
56240;DHT22;42154;51.992;5.896;2023-05-29T05:24:47;11.60;99.90
56240;DHT22;42154;51.992;5.896;2023-05-29T05:27:13;11.50;99.90
56240;DHT22;42154;51.992;5.896;2023-05-29T05:29:39;11.50;99.90
56240;DHT22;42154;51.992;5.896;2023-05-29T05:32:05;11.50;99.90
56240;DHT22;42154;51.992;5.896;2023-05-29T05:34:33;11.50;99.90
56240;DHT22;42154;51.992;5.896;2023-05-29T05:36:59;11.60;99.90
56240;DHT22;42154;51.992;5.896;2023-05-29T05:39:24;11.60;99.90
56240;DHT22;42154;51.992;5.896;2023-05-29T05:41:51;11.60;99.90
56240;DHT22;42154;51.992;5.896;2023-05-29T05:44:33;11.60;99.90
56240;DHT22;42154;51.992;5.896;2023-05-29T05:47:02;11.60;99.90
56240;DHT22;42154;51.992;5.896;2023-05-29T05:49:28;11.70;99.90
56240;DHT22;42154;51.992;5.896;2023-05-29T05:51:54;11.70;99.90
56240;DHT22;42154;51.992;5.896;2023-05-29T05:54:20;11.80;99.90
56240;DHT22;42154;51.992;5.896;2023-05-29T05:56:46;11.80;99.90
56240;DHT22;42154;51.992;5.896;2023-05-29T05:59:14;11.80;99.90
56240;DHT22;42154;51.992;5.896;2023-05-29T06:01:41;12.00;99.90
56240;DHT22;42154;51.992;5.896;2023-05-29T06:04:07;12.10;99.90
56240;DHT22;42154;51.992;5.896;2023-05-29T06:06:34;12.20;99.90
56240;DHT22;42154;51.992;5.896;2023-05-29T06:09:00;12.20;99.90
56240;DHT22;42154;51.992;5.896;2023-05-29T06:11:27;12.30;99.90
56240;DHT22;42154;51.992;5.896;2023-05-29T06:13:54;12.40;99.90
56240;DHT22;42154;51.992;5.896;2023-05-29T06:16:26;12.50;99.90
56240;DHT22;42154;51.992;5.896;2023-05-29T06:18:52;12.60;99.90
56240;DHT22;42154;51.992;5.896;2023-05-29T06:21:18;12.60;99.90
56240;DHT22;42154;51.992;5.896;2023-05-29T06:23:51;12.50;99.90
56240;DHT22;42154;51.992;5.896;2023-05-29T06:26:16;12.60;99.90
56240;DHT22;42154;51.992;5.896;2023-05-29T06:28:43;12.60;99.90
56240;DHT22;42154;51.992;5.896;2023-05-29T06:31:09;12.60;99.90
56240;DHT22;42154;51.992;5.896;2023-05-29T06:33:35;12.60;99.90
56240;DHT22;42154;51.992;5.896;2023-05-29T06:36:02;12.60;99.90
56240;DHT22;42154;51.992;5.896;2023-05-29T06:38:27;12.70;99.90
56240;DHT22;42154;51.992;5.896;2023-05-29T06:40:53;12.70;99.90
56240;DHT22;42154;51.992;5.896;2023-05-29T06:43:19;12.80;99.90
56240;DHT22;42154;51.992;5.896;2023-05-29T06:45:48;12.90;99.90
56240;DHT22;42154;51.992;5.896;2023-05-29T06:48:14;12.90;99.90
56240;DHT22;42154;51.992;5.896;2023-05-29T06:50:41;12.90;99.90
56240;DHT22;42154;51.992;5.896;2023-05-29T06:53:33;13.00;99.90
56240;DHT22;42154;51.992;5.896;2023-05-29T06:56:00;13.10;99.90
56240;DHT22;42154;51.992;5.896;2023-05-29T06:58:26;13.20;99.90
56240;DHT22;42154;51.992;5.896;2023-05-29T07:00:52;13.30;99.90
56240;DHT22;42154;51.992;5.896;2023-05-29T07:03:31;13.40;99.90
56240;DHT22;42154;51.992;5.896;2023-05-29T07:05:57;13.40;99.90
56240;DHT22;42154;51.992;5.896;2023-05-29T07:08:24;13.40;99.90
56240;DHT22;42154;51.992;5.896;2023-05-29T07:10:51;13.50;99.90
56240;DHT22;42154;51.992;5.896;2023-05-29T07:13:18;13.60;99.90
56240;DHT22;42154;51.992;5.896;2023-05-29T07:15:45;13.60;99.90
56240;DHT22;42154;51.992;5.896;2023-05-29T07:18:12;13.70;99.90
56240;DHT22;42154;51.992;5.896;2023-05-29T07:20:38;13.70;99.90
56240;DHT22;42154;51.992;5.896;2023-05-29T07:23:04;13.70;99.90
56240;DHT22;42154;51.992;5.896;2023-05-29T07:25:31;13.70;99.90
56240;DHT22;42154;51.992;5.896;2023-05-29T07:27:58;13.90;99.90
56240;DHT22;42154;51.992;5.896;2023-05-29T07:30:24;14.00;99.90
56240;DHT22;42154;51.992;5.896;2023-05-29T07:32:52;14.10;99.90
56240;DHT22;42154;51.992;5.896;2023-05-29T07:35:18;14.10;99.90
56240;DHT22;42154;51.992;5.896;2023-05-29T07:37:44;14.20;99.90
56240;DHT22;42154;51.992;5.896;2023-05-29T07:40:13;14.20;99.90
56240;DHT22;42154;51.992;5.896;2023-05-29T07:43:05;14.30;99.90
56240;DHT22;42154;51.992;5.896;2023-05-29T07:45:42;14.30;99.90
56240;DHT22;42154;51.992;5.896;2023-05-29T07:48:08;14.30;99.90
56240;DHT22;42154;51.992;5.896;2023-05-29T07:50:33;14.30;99.90
56240;DHT22;42154;51.992;5.896;2023-05-29T07:53:00;14.30;99.90
56240;DHT22;42154;51.992;5.896;2023-05-29T07:55:28;14.40;99.90
56240;DHT22;42154;51.992;5.896;2023-05-29T07:57:55;14.50;99.90
56240;DHT22;42154;51.992;5.896;2023-05-29T08:00:21;14.50;99.90
56240;DHT22;42154;51.992;5.896;2023-05-29T08:02:47;14.70;99.90
56240;DHT22;42154;51.992;5.896;2023-05-29T08:05:35;14.80;99.90
56240;DHT22;42154;51.992;5.896;2023-05-29T08:08:06;15.00;99.90
56240;DHT22;42154;51.992;5.896;2023-05-29T08:10:33;15.20;99.90
56240;DHT22;42154;51.992;5.896;2023-05-29T08:12:59;15.20;99.90
56240;DHT22;42154;51.992;5.896;2023-05-29T08:15:25;15.20;99.90
56240;DHT22;42154;51.992;5.896;2023-05-29T08:17:52;15.20;99.90
56240;DHT22;42154;51.992;5.896;2023-05-29T08:20:17;15.20;99.90
56240;DHT22;42154;51.992;5.896;2023-05-29T08:22:44;15.30;99.90
56240;DHT22;42154;51.992;5.896;2023-05-29T08:25:10;15.30;99.90
56240;DHT22;42154;51.992;5.896;2023-05-29T08:27:36;15.30;99.90
56240;DHT22;42154;51.992;5.896;2023-05-29T08:30:03;15.30;99.90
56240;DHT22;42154;51.992;5.896;2023-05-29T08:32:29;15.30;99.90
56240;DHT22;42154;51.992;5.896;2023-05-29T08:34:55;15.40;99.90
56240;DHT22;42154;51.992;5.896;2023-05-29T08:37:21;15.50;99.90
56240;DHT22;42154;51.992;5.896;2023-05-29T08:39:47;15.60;99.90
56240;DHT22;42154;51.992;5.896;2023-05-29T08:42:18;15.60;99.90
56240;DHT22;42154;51.992;5.896;2023-05-29T08:44:47;15.80;99.90
56240;DHT22;42154;51.992;5.896;2023-05-29T08:47:16;15.80;99.90
56240;DHT22;42154;51.992;5.896;2023-05-29T08:49:51;15.90;99.90
56240;DHT22;42154;51.992;5.896;2023-05-29T08:52:19;16.00;99.90
56240;DHT22;42154;51.992;5.896;2023-05-29T08:54:46;16.10;99.90
56240;DHT22;42154;51.992;5.896;2023-05-29T08:57:12;16.30;99.90
56240;DHT22;42154;51.992;5.896;2023-05-29T08:59:42;16.40;99.90
56240;DHT22;42154;51.992;5.896;2023-05-29T09:02:09;16.50;99.80
56240;DHT22;42154;51.992;5.896;2023-05-29T09:04:35;16.60;99.60
56240;DHT22;42154;51.992;5.896;2023-05-29T09:07:00;16.60;99.40
56240;DHT22;42154;51.992;5.896;2023-05-29T09:09:28;16.60;98.90
56240;DHT22;42154;51.992;5.896;2023-05-29T09:11:56;16.50;98.60
56240;DHT22;42154;51.992;5.896;2023-05-29T09:14:41;16.50;98.70
56240;DHT22;42154;51.992;5.896;2023-05-29T09:17:09;16.60;98.60
56240;DHT22;42154;51.992;5.896;2023-05-29T09:19:36;16.50;98.30
56240;DHT22;42154;51.992;5.896;2023-05-29T09:22:05;16.60;98.60
56240;DHT22;42154;51.992;5.896;2023-05-29T09:24:33;16.60;98.70
56240;DHT22;42154;51.992;5.896;2023-05-29T09:27:00;16.60;98.60
56240;DHT22;42154;51.992;5.896;2023-05-29T09:29:28;16.70;99.00
56240;DHT22;42154;51.992;5.896;2023-05-29T09:31:56;16.90;98.80
56240;DHT22;42154;51.992;5.896;2023-05-29T09:34:25;17.00;98.30
56240;DHT22;42154;51.992;5.896;2023-05-29T09:36:58;17.00;98.30
56240;DHT22;42154;51.992;5.896;2023-05-29T09:39:28;17.00;97.70
56240;DHT22;42154;51.992;5.896;2023-05-29T09:41:54;17.00;97.60
56240;DHT22;42154;51.992;5.896;2023-05-29T09:44:19;17.00;97.60
56240;DHT22;42154;51.992;5.896;2023-05-29T09:46:48;17.00;97.60
56240;DHT22;42154;51.992;5.896;2023-05-29T09:49:14;17.10;97.80
56240;DHT22;42154;51.992;5.896;2023-05-29T09:51:42;17.10;97.60
56240;DHT22;42154;51.992;5.896;2023-05-29T09:54:17;17.10;97.40
56240;DHT22;42154;51.992;5.896;2023-05-29T09:56:44;17.20;97.50
56240;DHT22;42154;51.992;5.896;2023-05-29T09:59:12;17.30;97.40
56240;DHT22;42154;51.992;5.896;2023-05-29T10:01:43;17.40;97.40
56240;DHT22;42154;51.992;5.896;2023-05-29T10:04:11;17.40;96.90
56240;DHT22;42154;51.992;5.896;2023-05-29T10:06:38;17.40;96.90
56240;DHT22;42154;51.992;5.896;2023-05-29T10:09:09;17.50;96.70
56240;DHT22;42154;51.992;5.896;2023-05-29T10:11:38;17.50;96.70
56240;DHT22;42154;51.992;5.896;2023-05-29T10:14:06;17.60;96.70
56240;DHT22;42154;51.992;5.896;2023-05-29T10:16:35;17.80;96.50
56240;DHT22;42154;51.992;5.896;2023-05-29T10:19:06;17.90;96.60
56240;DHT22;42154;51.992;5.896;2023-05-29T10:21:39;18.10;96.20
56240;DHT22;42154;51.992;5.896;2023-05-29T10:24:06;18.00;95.60
56240;DHT22;42154;51.992;5.896;2023-05-29T10:26:37;18.10;95.70
56240;DHT22;42154;51.992;5.896;2023-05-29T10:32:21;18.40;94.80
56240;DHT22;42154;51.992;5.896;2023-05-29T10:35:16;18.40;94.10
56240;DHT22;42154;51.992;5.896;2023-05-29T10:37:52;18.40;93.90
56240;DHT22;42154;51.992;5.896;2023-05-29T10:40:24;18.60;94.40
56240;DHT22;42154;51.992;5.896;2023-05-29T10:42:51;18.80;94.10
56240;DHT22;42154;51.992;5.896;2023-05-29T10:50:43;18.80;92.40
56240;DHT22;42154;51.992;5.896;2023-05-29T10:53:15;18.80;92.50
56240;DHT22;42154;51.992;5.896;2023-05-29T10:55:44;18.70;92.30
56240;DHT22;42154;51.992;5.896;2023-05-29T10:58:17;18.80;92.00
56240;DHT22;42154;51.992;5.896;2023-05-29T11:00:45;18.80;91.80
56240;DHT22;42154;51.992;5.896;2023-05-29T11:03:15;18.70;91.10
56240;DHT22;42154;51.992;5.896;2023-05-29T11:05:57;18.60;90.80
56240;DHT22;42154;51.992;5.896;2023-05-29T11:08:55;18.40;91.30
56240;DHT22;42154;51.992;5.896;2023-05-29T11:13:54;18.30;91.80
56240;DHT22;42154;51.992;5.896;2023-05-29T11:18:55;18.40;90.20
56240;DHT22;42154;51.992;5.896;2023-05-29T11:21:42;18.30;90.50
56240;DHT22;42154;51.992;5.896;2023-05-29T11:24:22;18.30;90.80
56240;DHT22;42154;51.992;5.896;2023-05-29T11:26:51;18.40;91.10
56240;DHT22;42154;51.992;5.896;2023-05-29T11:29:29;18.60;91.20
56240;DHT22;42154;51.992;5.896;2023-05-29T11:32:01;18.90;90.60
56240;DHT22;42154;51.992;5.896;2023-05-29T11:34:31;19.00;89.60
56240;DHT22;42154;51.992;5.896;2023-05-29T11:36:59;19.10;90.00
56240;DHT22;42154;51.992;5.896;2023-05-29T11:39:26;19.20;90.10
56240;DHT22;42154;51.992;5.896;2023-05-29T11:41:52;19.20;88.90
56240;DHT22;42154;51.992;5.896;2023-05-29T11:44:19;19.10;88.10
56240;DHT22;42154;51.992;5.896;2023-05-29T11:46:45;19.10;88.90
56240;DHT22;42154;51.992;5.896;2023-05-29T11:49:11;19.10;89.70
56240;DHT22;42154;51.992;5.896;2023-05-29T11:51:37;19.20;88.10
56240;DHT22;42154;51.992;5.896;2023-05-29T11:54:03;19.30;88.70
56240;DHT22;42154;51.992;5.896;2023-05-29T11:56:29;19.40;87.40
56240;DHT22;42154;51.992;5.896;2023-05-29T11:58:58;19.40;86.80
56240;DHT22;42154;51.992;5.896;2023-05-29T12:01:26;19.40;86.90
56240;DHT22;42154;51.992;5.896;2023-05-29T12:03:52;19.50;86.70
56240;DHT22;42154;51.992;5.896;2023-05-29T12:06:34;19.50;85.80
56240;DHT22;42154;51.992;5.896;2023-05-29T12:09:01;19.50;85.50
56240;DHT22;42154;51.992;5.896;2023-05-29T12:11:29;19.60;86.10
56240;DHT22;42154;51.992;5.896;2023-05-29T12:13:57;19.70;84.40
56240;DHT22;42154;51.992;5.896;2023-05-29T12:16:23;19.70;83.60
56240;DHT22;42154;51.992;5.896;2023-05-29T12:18:49;19.60;83.30
56240;DHT22;42154;51.992;5.896;2023-05-29T12:21:15;19.50;84.70
56240;DHT22;42154;51.992;5.896;2023-05-29T12:23:41;19.60;85.20
56240;DHT22;42154;51.992;5.896;2023-05-29T12:26:07;19.80;85.10
56240;DHT22;42154;51.992;5.896;2023-05-29T12:28:32;20.00;83.20
56240;DHT22;42154;51.992;5.896;2023-05-29T12:30:59;20.00;82.50
56240;DHT22;42154;51.992;5.896;2023-05-29T12:33:29;20.00;82.20
56240;DHT22;42154;51.992;5.896;2023-05-29T12:36:05;20.10;81.10
56240;DHT22;42154;51.992;5.896;2023-05-29T12:38:51;20.20;80.60
56240;DHT22;42154;51.992;5.896;2023-05-29T12:41:33;20.20;79.00
56240;DHT22;42154;51.992;5.896;2023-05-29T12:44:02;20.10;80.50
56240;DHT22;42154;51.992;5.896;2023-05-29T12:46:36;19.90;80.30
56240;DHT22;42154;51.992;5.896;2023-05-29T12:49:23;19.80;80.40
56240;DHT22;42154;51.992;5.896;2023-05-29T12:51:51;19.80;82.40
56240;DHT22;42154;51.992;5.896;2023-05-29T12:54:18;19.90;81.70
56240;DHT22;42154;51.992;5.896;2023-05-29T12:56:44;20.00;81.80
56240;DHT22;42154;51.992;5.896;2023-05-29T12:59:11;20.00;81.20
56240;DHT22;42154;51.992;5.896;2023-05-29T13:01:37;20.00;81.10
56240;DHT22;42154;51.992;5.896;2023-05-29T13:04:06;20.00;80.10
56240;DHT22;42154;51.992;5.896;2023-05-29T13:06:37;19.80;79.80
56240;DHT22;42154;51.992;5.896;2023-05-29T13:09:03;19.70;79.70
56240;DHT22;42154;51.992;5.896;2023-05-29T13:11:30;19.70;79.50
56240;DHT22;42154;51.992;5.896;2023-05-29T13:13:56;19.80;80.50
56240;DHT22;42154;51.992;5.896;2023-05-29T13:16:22;20.00;80.60
56240;DHT22;42154;51.992;5.896;2023-05-29T13:18:48;20.10;80.50
56240;DHT22;42154;51.992;5.896;2023-05-29T13:21:14;20.30;80.60
56240;DHT22;42154;51.992;5.896;2023-05-29T13:23:40;20.40;77.10
56240;DHT22;42154;51.992;5.896;2023-05-29T13:26:05;20.40;78.10
56240;DHT22;42154;51.992;5.896;2023-05-29T13:28:32;20.40;77.90
56240;DHT22;42154;51.992;5.896;2023-05-29T13:30:59;20.30;77.00
56240;DHT22;42154;51.992;5.896;2023-05-29T13:33:24;20.20;76.40
56240;DHT22;42154;51.992;5.896;2023-05-29T13:35:50;20.00;77.00
56240;DHT22;42154;51.992;5.896;2023-05-29T13:38:16;20.00;77.80
56240;DHT22;42154;51.992;5.896;2023-05-29T13:40:42;20.10;78.30
56240;DHT22;42154;51.992;5.896;2023-05-29T13:43:07;20.10;76.70
56240;DHT22;42154;51.992;5.896;2023-05-29T13:45:33;20.10;77.30
56240;DHT22;42154;51.992;5.896;2023-05-29T13:47:59;20.10;75.80
56240;DHT22;42154;51.992;5.896;2023-05-29T13:50:24;20.00;75.60
56240;DHT22;42154;51.992;5.896;2023-05-29T13:52:51;19.90;74.20
56240;DHT22;42154;51.992;5.896;2023-05-29T13:55:16;20.00;75.40
56240;DHT22;42154;51.992;5.896;2023-05-29T13:57:42;20.20;75.80
56240;DHT22;42154;51.992;5.896;2023-05-29T14:00:11;20.30;76.10
56240;DHT22;42154;51.992;5.896;2023-05-29T14:02:37;20.30;75.80
56240;DHT22;42154;51.992;5.896;2023-05-29T14:05:03;20.20;75.10
56240;DHT22;42154;51.992;5.896;2023-05-29T14:07:29;20.20;75.90
56240;DHT22;42154;51.992;5.896;2023-05-29T14:09:55;20.30;75.10
56240;DHT22;42154;51.992;5.896;2023-05-29T14:12:20;20.40;75.90
56240;DHT22;42154;51.992;5.896;2023-05-29T14:14:46;20.50;75.10
56240;DHT22;42154;51.992;5.896;2023-05-29T14:17:14;20.50;70.10
56240;DHT22;42154;51.992;5.896;2023-05-29T14:19:40;20.40;71.00
56240;DHT22;42154;51.992;5.896;2023-05-29T14:22:06;20.40;72.30
56240;DHT22;42154;51.992;5.896;2023-05-29T14:24:32;20.40;72.90
56240;DHT22;42154;51.992;5.896;2023-05-29T14:26:58;20.40;73.10
56240;DHT22;42154;51.992;5.896;2023-05-29T14:29:24;20.30;73.10
56240;DHT22;42154;51.992;5.896;2023-05-29T14:31:50;20.30;72.90
56240;DHT22;42154;51.992;5.896;2023-05-29T14:34:15;20.20;73.20
56240;DHT22;42154;51.992;5.896;2023-05-29T14:36:41;20.10;72.50
56240;DHT22;42154;51.992;5.896;2023-05-29T14:39:10;20.00;72.80
56240;DHT22;42154;51.992;5.896;2023-05-29T14:41:36;20.00;72.00
56240;DHT22;42154;51.992;5.896;2023-05-29T14:44:02;20.10;72.70
56240;DHT22;42154;51.992;5.896;2023-05-29T14:46:28;20.30;72.50
56240;DHT22;42154;51.992;5.896;2023-05-29T14:48:58;20.40;71.80
56240;DHT22;42154;51.992;5.896;2023-05-29T14:51:24;20.50;71.70
56240;DHT22;42154;51.992;5.896;2023-05-29T14:53:50;20.60;72.30
56240;DHT22;42154;51.992;5.896;2023-05-29T14:56:16;20.60;72.50
56240;DHT22;42154;51.992;5.896;2023-05-29T14:58:44;20.70;72.00
56240;DHT22;42154;51.992;5.896;2023-05-29T15:01:09;20.70;72.80
56240;DHT22;42154;51.992;5.896;2023-05-29T15:03:35;20.70;72.30
56240;DHT22;42154;51.992;5.896;2023-05-29T15:06:02;20.80;72.60
56240;DHT22;42154;51.992;5.896;2023-05-29T15:08:29;20.80;71.40
56240;DHT22;42154;51.992;5.896;2023-05-29T15:11:02;20.70;71.40
56240;DHT22;42154;51.992;5.896;2023-05-29T15:13:29;20.70;69.40
56240;DHT22;42154;51.992;5.896;2023-05-29T15:15:56;20.60;69.10
56240;DHT22;42154;51.992;5.896;2023-05-29T15:18:25;20.40;68.80
56240;DHT22;42154;51.992;5.896;2023-05-29T15:20:52;20.40;69.50
56240;DHT22;42154;51.992;5.896;2023-05-29T15:23:18;20.40;68.10
56240;DHT22;42154;51.992;5.896;2023-05-29T15:25:47;20.40;67.90
56240;DHT22;42154;51.992;5.896;2023-05-29T15:28:13;20.30;67.00
56240;DHT22;42154;51.992;5.896;2023-05-29T15:30:38;20.20;67.70
56240;DHT22;42154;51.992;5.896;2023-05-29T15:33:05;20.30;67.80
56240;DHT22;42154;51.992;5.896;2023-05-29T15:35:33;20.30;68.30
56240;DHT22;42154;51.992;5.896;2023-05-29T15:37:59;20.40;68.10
56240;DHT22;42154;51.992;5.896;2023-05-29T15:40:25;20.40;68.60
56240;DHT22;42154;51.992;5.896;2023-05-29T15:42:51;20.50;69.60
56240;DHT22;42154;51.992;5.896;2023-05-29T15:45:16;20.60;69.70
56240;DHT22;42154;51.992;5.896;2023-05-29T15:47:42;20.50;68.50
56240;DHT22;42154;51.992;5.896;2023-05-29T15:50:08;20.50;69.30
56240;DHT22;42154;51.992;5.896;2023-05-29T15:52:34;20.50;69.00
56240;DHT22;42154;51.992;5.896;2023-05-29T15:55:00;20.40;69.40
56240;DHT22;42154;51.992;5.896;2023-05-29T15:57:25;20.40;69.90